createdAt,value
2024-04-24T00:02:21.082Z,6.15
2024-04-24T00:04:51.807Z,6.18
2024-04-24T00:07:22.312Z,6.19
2024-04-24T00:09:52.784Z,6.22
2024-04-24T00:12:21.629Z,6.29
2024-04-24T00:14:52.331Z,6.35
2024-04-24T00:17:22.843Z,6.38
2024-04-24T00:19:53.323Z,6.34
2024-04-24T00:22:22.271Z,6.33
2024-04-24T00:24:52.742Z,6.32
2024-04-24T00:27:21.563Z,6.30
2024-04-24T00:29:52.098Z,6.22
2024-04-24T00:32:22.610Z,6.15
2024-04-24T00:34:53.029Z,6.13
2024-04-24T00:37:23.492Z,6.14
2024-04-24T00:39:52.320Z,6.16
2024-04-24T00:42:23.480Z,6.16
2024-04-24T00:44:53.939Z,6.16
2024-04-24T00:47:23.754Z,6.17
2024-04-24T00:49:56.152Z,6.18
2024-04-24T00:52:26.802Z,6.18
2024-04-24T00:54:57.728Z,6.16
2024-04-24T00:57:28.469Z,6.16
2024-04-24T00:59:58.961Z,6.13
2024-04-24T01:02:27.974Z,6.09
2024-04-24T01:04:58.520Z,6.05
2024-04-24T01:07:29.119Z,6.07
2024-04-24T01:09:59.528Z,6.05
2024-04-24T01:12:29.956Z,6.05
2024-04-24T01:14:58.848Z,6.04
2024-04-24T01:17:29.830Z,6.02
2024-04-24T01:20:02.233Z,6.00
2024-04-24T01:22:52.447Z,5.97
2024-04-24T01:25:30.740Z,5.93
2024-04-24T01:28:01.528Z,5.88
2024-04-24T01:30:32.192Z,5.83
2024-04-24T01:33:02.781Z,5.78
2024-04-24T01:35:33.427Z,5.76
2024-04-24T01:38:02.265Z,5.78
2024-04-24T01:40:32.734Z,5.80
2024-04-24T01:43:01.598Z,5.82
2024-04-24T01:45:31.948Z,5.85
2024-04-24T01:48:02.422Z,5.85
2024-04-24T01:50:31.325Z,5.84
2024-04-24T01:53:01.855Z,5.81
2024-04-24T01:55:30.782Z,5.75
2024-04-24T01:58:01.244Z,5.67
2024-04-24T02:00:31.770Z,5.58
2024-04-24T02:03:02.239Z,5.52
2024-04-24T02:05:31.196Z,5.48
2024-04-24T02:08:01.650Z,5.47
2024-04-24T02:10:32.055Z,5.50
2024-04-24T02:13:02.624Z,5.56
2024-04-24T02:15:31.624Z,5.60
2024-04-24T02:18:07.608Z,5.63
2024-04-24T02:20:38.249Z,5.67
2024-04-24T02:23:09.186Z,5.65
2024-04-24T02:25:39.582Z,5.63
2024-04-24T02:28:11.534Z,5.59
2024-04-24T02:30:42.209Z,5.56
2024-04-24T02:33:12.824Z,5.54
2024-04-24T02:35:43.526Z,5.52
2024-04-24T02:38:12.488Z,5.49
2024-04-24T02:40:43.133Z,5.49
2024-04-24T02:43:13.756Z,5.51
2024-04-24T02:45:44.286Z,5.54
2024-04-24T02:48:13.253Z,5.53
2024-04-24T02:50:43.826Z,5.57
2024-04-24T02:53:12.685Z,5.61
2024-04-24T02:55:43.220Z,5.64
2024-04-24T02:58:12.546Z,5.66
2024-04-24T03:00:43.071Z,5.66
2024-04-24T03:03:12.021Z,5.65
2024-04-24T03:05:42.522Z,5.63
2024-04-24T03:08:12.996Z,5.60
2024-04-24T03:10:41.863Z,5.53
2024-04-24T03:13:12.377Z,5.46
2024-04-24T03:15:41.223Z,5.48
2024-04-24T03:18:11.722Z,5.50
2024-04-24T03:20:40.686Z,5.51
2024-04-24T03:23:11.170Z,5.56
2024-04-24T03:25:40.118Z,5.63
2024-04-24T03:28:10.670Z,5.66
2024-04-24T03:30:39.514Z,5.67
2024-04-24T03:33:10.547Z,5.66
2024-04-24T03:35:41.225Z,5.62
2024-04-24T03:38:10.100Z,5.57
2024-04-24T03:40:40.614Z,5.53
2024-04-24T03:43:09.461Z,5.49
2024-04-24T03:45:39.872Z,5.45
2024-04-24T03:48:10.934Z,5.38
2024-04-24T03:50:41.453Z,5.31
2024-04-24T03:53:10.361Z,5.29
2024-04-24T03:55:41.667Z,5.33
2024-04-24T03:58:12.141Z,5.39
2024-04-24T04:00:41.008Z,5.45
2024-04-24T04:03:11.627Z,5.50
2024-04-24T04:05:42.158Z,5.57
2024-04-24T04:08:11.033Z,5.63
2024-04-24T04:10:41.525Z,5.67
2024-04-24T04:13:10.394Z,5.67
2024-04-24T04:15:40.786Z,5.65
2024-04-24T04:18:11.350Z,5.63
2024-04-24T04:20:42.076Z,5.60
2024-04-24T04:23:13.572Z,5.58
2024-04-24T04:25:44.111Z,5.55
2024-04-24T04:28:26.656Z,5.52
2024-04-24T04:30:57.175Z,5.49
2024-04-24T04:33:27.725Z,5.52
2024-04-24T04:35:58.220Z,5.56
2024-04-24T04:38:27.237Z,5.58
2024-04-24T04:40:57.782Z,5.59
2024-04-24T04:43:26.638Z,5.58
2024-04-24T04:45:57.927Z,5.56
2024-04-24T04:48:28.354Z,5.56
2024-04-24T04:50:58.773Z,5.54
2024-04-24T04:53:29.445Z,5.54
2024-04-24T04:55:59.970Z,5.53
2024-04-24T04:58:28.929Z,5.52
2024-04-24T05:00:59.362Z,5.53
2024-04-24T05:03:29.871Z,5.53
2024-04-24T05:05:59.734Z,5.60
2024-04-24T05:08:30.231Z,6.01
2024-04-24T05:10:59.262Z,6.47
2024-04-24T05:13:29.762Z,6.82
2024-04-24T05:15:58.640Z,6.89
2024-04-24T05:18:29.238Z,6.91
2024-04-24T05:21:01.364Z,6.91
2024-04-24T05:23:32.617Z,6.87
2024-04-24T05:26:24.229Z,6.83
2024-04-24T05:29:08.256Z,6.77
2024-04-24T05:31:39.045Z,6.71
2024-04-24T05:34:09.743Z,6.65
2024-04-24T05:36:40.206Z,6.59
2024-04-24T05:39:09.162Z,6.54
2024-04-24T05:41:39.593Z,6.45
2024-04-24T05:44:08.671Z,6.39
2024-04-24T05:46:39.317Z,6.40
2024-04-24T05:49:09.783Z,6.44
2024-04-24T05:51:38.657Z,6.48
2024-04-24T05:54:09.197Z,6.51
2024-04-24T05:56:39.701Z,6.55
2024-04-24T05:59:08.560Z,6.59
2024-04-24T06:01:38.978Z,6.58
2024-04-24T06:04:09.539Z,6.56
2024-04-24T06:06:39.941Z,6.55
2024-04-24T06:09:10.459Z,6.54
2024-04-24T06:11:41.150Z,6.53
2024-04-24T06:14:11.781Z,6.52
2024-04-24T06:16:42.234Z,6.51
2024-04-24T06:19:11.196Z,6.56
2024-04-24T06:21:41.705Z,6.63
2024-04-24T06:24:12.859Z,6.72
2024-04-24T06:26:45.786Z,6.77
2024-04-24T06:29:16.715Z,6.82
2024-04-24T06:31:45.622Z,6.84
2024-04-24T06:34:16.503Z,6.84
2024-04-24T06:36:46.934Z,6.87
2024-04-24T06:39:15.826Z,6.86
2024-04-24T06:41:46.232Z,6.82
2024-04-24T06:44:16.681Z,6.78
2024-04-24T06:46:45.659Z,6.78
2024-04-24T06:49:16.243Z,6.80
2024-04-24T06:51:46.674Z,6.84
2024-04-24T06:54:15.788Z,6.94
2024-04-24T06:56:44.747Z,7.01
2024-04-24T06:59:15.378Z,7.06
2024-04-24T07:01:45.936Z,7.08
2024-04-24T07:04:16.485Z,7.11
2024-04-24T07:06:47.036Z,7.20
2024-04-24T07:09:15.989Z,7.45
2024-04-24T07:11:46.410Z,7.56
2024-04-24T07:14:15.327Z,7.58
2024-04-24T07:16:44.272Z,7.56
2024-04-24T07:19:15.275Z,7.56
2024-04-24T07:21:45.721Z,7.53
2024-04-24T07:24:14.600Z,7.53
2024-04-24T07:26:45.128Z,7.55
2024-04-24T07:29:15.582Z,7.59
2024-04-24T07:31:44.494Z,7.61
2024-04-24T07:34:15.002Z,7.63
2024-04-24T07:36:45.548Z,7.65
2024-04-24T07:39:14.476Z,7.67
2024-04-24T07:41:45.059Z,7.67
2024-04-24T07:44:15.529Z,7.66
2024-04-24T07:46:46.027Z,7.66
2024-04-24T07:49:16.665Z,7.67
2024-04-24T07:51:47.123Z,7.69
2024-04-24T07:54:15.945Z,7.76
2024-04-24T07:56:46.371Z,7.83
2024-04-24T07:59:15.294Z,7.90
2024-04-24T08:01:45.767Z,7.98
2024-04-24T08:04:17.286Z,8.05
2024-04-24T08:06:47.769Z,8.11
2024-04-24T08:09:18.513Z,8.16
2024-04-24T08:11:49.027Z,8.17
2024-04-24T08:14:19.562Z,8.16
2024-04-24T08:16:50.038Z,8.16
2024-04-24T08:19:20.491Z,8.20
2024-04-24T08:21:50.947Z,8.24
2024-04-24T08:24:21.430Z,8.25
2024-04-24T08:26:52.293Z,8.25
2024-04-24T08:29:23.273Z,8.25
2024-04-24T08:31:54.206Z,8.23
2024-04-24T08:34:24.622Z,8.24
2024-04-24T08:36:55.313Z,8.23
2024-04-24T08:39:25.743Z,8.22
2024-04-24T08:42:00.084Z,8.22
2024-04-24T08:44:31.716Z,8.24
2024-04-24T08:47:05.415Z,8.23
2024-04-24T08:49:38.355Z,8.22
2024-04-24T08:52:10.370Z,8.16
2024-04-24T08:54:41.405Z,8.15
2024-04-24T08:57:14.707Z,8.16
2024-04-24T08:59:48.208Z,8.16
2024-04-24T09:02:20.777Z,8.25
2024-04-24T09:04:53.175Z,8.34
2024-04-24T09:07:26.948Z,8.40
2024-04-24T09:09:57.790Z,8.48
2024-04-24T09:12:29.495Z,8.57
2024-04-24T09:15:01.143Z,8.66
2024-04-24T09:17:32.856Z,8.68
2024-04-24T09:20:03.547Z,8.67
2024-04-24T09:22:34.029Z,8.61
2024-04-24T09:25:04.852Z,8.61
2024-04-24T09:27:35.567Z,8.61
2024-04-24T09:30:07.028Z,8.60
2024-04-24T09:32:38.108Z,8.63
2024-04-24T09:35:09.567Z,8.64
2024-04-24T09:37:40.232Z,8.62
2024-04-24T09:40:13.264Z,8.57
2024-04-24T09:42:43.994Z,8.53
2024-04-24T09:45:14.543Z,8.47
2024-04-24T09:47:46.860Z,8.43
2024-04-24T09:50:18.616Z,8.41
2024-04-24T09:52:49.308Z,8.42
2024-04-24T09:55:23.332Z,8.43
2024-04-24T09:57:58.100Z,8.43
2024-04-24T10:00:30.020Z,8.42
2024-04-24T10:03:04.742Z,8.44
2024-04-24T10:05:47.329Z,8.46
2024-04-24T10:08:26.799Z,8.49
2024-04-24T10:10:59.285Z,8.55
2024-04-24T10:13:33.628Z,8.60
2024-04-24T10:16:07.072Z,8.66
2024-04-24T10:18:40.085Z,8.92
2024-04-24T10:21:12.130Z,9.13
2024-04-24T10:23:43.222Z,9.28
2024-04-24T10:26:15.625Z,9.38
2024-04-24T10:28:50.049Z,9.48
2024-04-24T10:31:22.636Z,9.56
2024-04-24T10:33:53.449Z,9.65
2024-04-24T10:36:24.677Z,9.74
2024-04-24T10:38:57.564Z,9.79
2024-04-24T10:41:28.512Z,9.82
2024-04-24T10:43:59.708Z,9.84
2024-04-24T10:46:30.704Z,9.86
2024-04-24T10:49:01.899Z,9.88
2024-04-24T10:51:34.005Z,9.86
2024-04-24T10:54:15.848Z,9.78
2024-04-24T10:56:49.759Z,9.71
2024-04-24T10:59:30.030Z,9.67
2024-04-24T11:02:12.046Z,9.63
2024-04-24T11:04:43.897Z,9.65
2024-04-24T11:07:25.150Z,9.68
2024-04-24T11:10:04.067Z,9.75
2024-04-24T11:12:39.848Z,9.79
2024-04-24T11:15:21.952Z,9.81
2024-04-24T11:17:52.948Z,9.80
2024-04-24T11:20:25.375Z,9.79
2024-04-24T11:22:56.166Z,9.82
2024-04-24T11:25:27.290Z,9.85
2024-04-24T11:27:59.374Z,9.87
2024-04-24T11:30:30.120Z,9.91
2024-04-24T11:33:01.082Z,9.93
2024-04-24T11:35:31.916Z,9.95
2024-04-24T11:38:02.537Z,9.97
2024-04-24T11:40:33.209Z,9.98
2024-04-24T11:43:03.833Z,9.97
2024-04-24T11:45:34.361Z,9.97
2024-04-24T11:48:07.176Z,9.97
2024-04-24T11:50:38.334Z,10.00
2024-04-24T11:53:10.489Z,10.02
2024-04-24T11:55:41.135Z,10.04
2024-04-24T11:58:16.007Z,10.10
2024-04-24T12:00:48.147Z,10.17
2024-04-24T12:03:21.983Z,10.20
2024-04-24T12:05:53.881Z,10.24
2024-04-24T12:08:28.840Z,10.30
2024-04-24T12:11:00.465Z,10.37
2024-04-24T12:13:32.826Z,10.46
2024-04-24T12:16:04.437Z,10.53
2024-04-24T12:18:35.677Z,10.63
2024-04-24T12:21:06.592Z,10.68
2024-04-24T12:23:37.063Z,10.67
2024-04-24T12:26:07.759Z,10.68
2024-04-24T12:28:38.303Z,10.67
2024-04-24T12:31:08.719Z,10.62
2024-04-24T12:33:42.022Z,10.59
2024-04-24T12:36:12.551Z,10.53
2024-04-24T12:38:43.056Z,10.48
2024-04-24T12:41:13.511Z,10.44
2024-04-24T12:43:44.181Z,10.42
2024-04-24T12:46:14.682Z,10.41
2024-04-24T12:48:45.850Z,10.43
2024-04-24T12:51:16.388Z,10.47
2024-04-24T12:53:46.816Z,10.51
2024-04-24T12:56:17.331Z,10.57
2024-04-24T12:58:48.079Z,10.59
2024-04-24T13:01:21.937Z,10.59
2024-04-24T13:03:52.716Z,10.61
2024-04-24T13:06:24.412Z,10.61
2024-04-24T13:08:56.857Z,10.61
2024-04-24T13:11:27.759Z,10.61
2024-04-24T13:13:58.452Z,10.59
2024-04-24T13:16:28.930Z,10.56
2024-04-24T13:18:59.752Z,10.50
2024-04-24T13:21:30.374Z,10.43
2024-04-24T13:24:02.179Z,10.33
2024-04-24T13:26:33.521Z,10.24
2024-04-24T13:29:04.020Z,10.14
2024-04-24T13:31:34.746Z,10.04
2024-04-24T13:34:06.396Z,10.01
2024-04-24T13:36:36.982Z,9.98
2024-04-24T13:39:07.521Z,9.95
2024-04-24T13:41:40.457Z,9.94
2024-04-24T13:44:15.388Z,9.92
2024-04-24T13:46:45.928Z,9.92
2024-04-24T13:49:16.525Z,9.91
2024-04-24T13:51:47.064Z,9.89
2024-04-24T13:54:18.451Z,9.88
2024-04-24T13:56:48.976Z,9.85
2024-04-24T13:59:20.044Z,9.82
2024-04-24T14:01:51.299Z,9.79
2024-04-24T14:04:22.082Z,9.76
2024-04-24T14:06:52.595Z,9.75
2024-04-24T14:09:23.090Z,9.74
2024-04-24T14:11:54.176Z,9.71
2024-04-24T14:14:24.706Z,9.71
2024-04-24T14:16:55.319Z,9.70
2024-04-24T14:19:25.857Z,9.68
2024-04-24T14:21:56.733Z,9.67
2024-04-24T14:24:27.460Z,9.66
2024-04-24T14:26:57.876Z,9.65
2024-04-24T14:29:28.442Z,9.66
2024-04-24T14:31:58.988Z,9.67
2024-04-24T14:34:29.573Z,9.69
2024-04-24T14:37:00.678Z,9.71
2024-04-24T14:39:31.436Z,9.78
2024-04-24T14:42:02.745Z,10.05
2024-04-24T14:44:33.441Z,10.32
2024-04-24T14:47:04.140Z,10.53
2024-04-24T14:49:35.622Z,10.58
2024-04-24T14:52:06.377Z,10.54
2024-04-24T14:54:36.887Z,10.48
2024-04-24T14:57:09.015Z,10.40
2024-04-24T14:59:39.443Z,10.29
2024-04-24T15:02:10.494Z,10.16
2024-04-24T15:04:42.000Z,10.04
2024-04-24T15:07:14.097Z,9.90
2024-04-24T15:09:44.745Z,9.77
2024-04-24T15:12:15.523Z,9.69
2024-04-24T15:14:46.055Z,9.63
2024-04-24T15:17:16.864Z,9.58
2024-04-24T15:19:47.367Z,9.51
2024-04-24T15:22:17.839Z,9.45
2024-04-24T15:24:48.354Z,9.39
2024-04-24T15:27:18.739Z,9.26
2024-04-24T15:29:49.226Z,9.14
2024-04-24T15:32:19.757Z,9.03
2024-04-24T15:34:51.632Z,8.97
2024-04-24T15:37:22.106Z,8.93
2024-04-24T15:39:52.680Z,8.95
2024-04-24T15:42:23.143Z,9.02
2024-04-24T15:44:53.642Z,9.09
2024-04-24T15:47:24.283Z,9.13
2024-04-24T15:49:55.005Z,9.13
2024-04-24T15:52:25.492Z,9.09
2024-04-24T15:54:56.351Z,9.06
2024-04-24T15:57:26.837Z,9.02
2024-04-24T15:59:57.234Z,8.96
2024-04-24T16:02:27.770Z,8.91
2024-04-24T16:04:58.394Z,8.88
2024-04-24T16:07:28.870Z,8.88
2024-04-24T16:10:00.116Z,8.84
2024-04-24T16:12:30.760Z,8.82
2024-04-24T16:15:01.202Z,8.78
2024-04-24T16:17:31.874Z,8.76
2024-04-24T16:20:02.914Z,8.77
2024-04-24T16:22:33.423Z,8.76
2024-04-24T16:25:04.091Z,8.78
2024-04-24T16:27:34.617Z,8.74
2024-04-24T16:30:05.301Z,8.67
2024-04-24T16:32:36.187Z,8.62
2024-04-24T16:35:07.430Z,8.58
2024-04-24T16:37:38.436Z,8.53
2024-04-24T16:40:10.699Z,8.47
2024-04-24T16:42:41.587Z,8.42
2024-04-24T16:45:12.159Z,8.38
2024-04-24T16:47:43.189Z,8.33
2024-04-24T16:50:14.268Z,8.32
2024-04-24T16:52:45.099Z,8.35
2024-04-24T16:55:15.707Z,8.40
2024-04-24T16:57:47.777Z,8.48
2024-04-24T17:00:19.808Z,8.48
2024-04-24T17:02:50.776Z,8.48
2024-04-24T17:05:22.193Z,8.47
2024-04-24T17:07:52.927Z,8.46
2024-04-24T17:10:23.479Z,8.41
2024-04-24T17:12:54.251Z,8.36
2024-04-24T17:15:24.861Z,8.29
2024-04-24T17:17:55.397Z,8.21
2024-04-24T17:20:25.897Z,8.16
2024-04-24T17:22:56.351Z,8.13
2024-04-24T17:25:26.936Z,8.08
2024-04-24T17:27:57.633Z,8.02
2024-04-24T17:30:28.107Z,8.01
2024-04-24T17:32:58.720Z,8.02
2024-04-24T17:35:29.344Z,8.05
2024-04-24T17:38:00.023Z,8.09
2024-04-24T17:40:33.113Z,8.11
2024-04-24T17:43:03.731Z,8.10
2024-04-24T17:45:34.391Z,8.08
2024-04-24T17:48:05.415Z,8.02
2024-04-24T17:50:36.150Z,7.95
2024-04-24T17:53:07.543Z,7.90
2024-04-24T17:55:38.036Z,7.86
2024-04-24T17:58:08.854Z,7.83
2024-04-24T18:00:40.322Z,7.80
2024-04-24T18:03:11.110Z,7.76
2024-04-24T18:05:41.811Z,7.73
2024-04-24T18:08:16.568Z,7.72
2024-04-24T18:10:48.157Z,7.72
2024-04-24T18:13:18.899Z,7.75
2024-04-24T18:15:49.584Z,7.79
2024-04-24T18:18:20.514Z,7.85
2024-04-24T18:20:51.113Z,7.90
2024-04-24T18:23:22.056Z,7.94
2024-04-24T18:25:52.963Z,7.97
2024-04-24T18:28:25.142Z,7.98
2024-04-24T18:30:55.962Z,7.98
2024-04-24T18:33:26.717Z,7.97
2024-04-24T18:35:57.602Z,7.91
2024-04-24T18:38:30.592Z,7.82
2024-04-24T18:41:01.427Z,7.77
2024-04-24T18:43:31.964Z,7.74
2024-04-24T18:46:02.560Z,7.69
2024-04-24T18:48:33.238Z,7.66
2024-04-24T18:51:03.798Z,7.83
2024-04-24T18:53:34.451Z,8.00
2024-04-24T18:56:05.312Z,8.05
2024-04-24T18:58:35.811Z,8.06
2024-04-24T19:01:06.573Z,8.09
2024-04-24T19:03:37.272Z,8.10
2024-04-24T19:06:08.260Z,8.06
2024-04-24T19:08:38.756Z,8.01
2024-04-24T19:11:09.282Z,7.92
2024-04-24T19:13:39.884Z,7.83
2024-04-24T19:16:10.690Z,7.73
2024-04-24T19:18:41.180Z,7.65
2024-04-24T19:21:11.639Z,7.56
2024-04-24T19:23:42.289Z,7.48
2024-04-24T19:26:12.738Z,7.41
2024-04-24T19:28:43.355Z,7.38
2024-04-24T19:31:23.248Z,7.37
2024-04-24T19:33:58.376Z,7.38
2024-04-24T19:36:28.990Z,7.38
2024-04-24T19:39:00.181Z,7.39
2024-04-24T19:41:30.782Z,7.40
2024-04-24T19:44:03.739Z,7.41
2024-04-24T19:46:35.760Z,7.37
2024-04-24T19:49:06.415Z,7.31
2024-04-24T19:51:39.702Z,7.24
2024-04-24T19:54:10.260Z,7.17
2024-04-24T19:56:40.843Z,7.10
2024-04-24T19:59:11.602Z,7.03
2024-04-24T20:01:42.872Z,7.01
2024-04-24T20:04:13.376Z,7.04
2024-04-24T20:06:43.940Z,7.06
2024-04-24T20:09:14.455Z,7.09
2024-04-24T20:11:45.194Z,7.10
2024-04-24T20:14:16.119Z,7.10
2024-04-24T20:16:46.677Z,7.12
2024-04-24T20:19:17.548Z,7.08
2024-04-24T20:21:48.393Z,7.04
2024-04-24T20:24:18.874Z,6.99
2024-04-24T20:26:51.285Z,6.90
2024-04-24T20:29:22.470Z,6.82
2024-04-24T20:31:55.840Z,6.78
2024-04-24T20:34:26.786Z,6.75
2024-04-24T20:36:58.507Z,6.74
2024-04-24T20:39:28.987Z,6.75
2024-04-24T20:41:59.744Z,6.74
2024-04-24T20:44:30.499Z,6.74
2024-04-24T20:47:01.083Z,6.76
2024-04-24T20:49:31.936Z,6.76
2024-04-24T20:52:02.489Z,6.75
2024-04-24T20:54:33.661Z,6.73
2024-04-24T20:57:04.609Z,6.68
2024-04-24T20:59:38.087Z,6.64
2024-04-24T21:02:09.134Z,6.63
2024-04-24T21:04:39.757Z,6.59
2024-04-24T21:07:10.261Z,6.55
2024-04-24T21:09:41.960Z,6.54
2024-04-24T21:12:12.882Z,6.55
2024-04-24T21:14:44.043Z,6.54
2024-04-24T21:17:16.254Z,6.54
2024-04-24T21:19:46.902Z,6.54
2024-04-24T21:22:17.320Z,6.58
2024-04-24T21:24:46.195Z,6.65
2024-04-24T21:27:16.640Z,6.65
2024-04-24T21:29:45.553Z,6.60
2024-04-24T21:32:16.166Z,6.57
2024-04-24T21:34:46.714Z,6.57
2024-04-24T21:37:17.213Z,6.55
2024-04-24T21:39:47.634Z,6.54
2024-04-24T21:42:16.742Z,6.51
2024-04-24T21:44:47.180Z,6.47
2024-04-24T21:47:16.230Z,6.44
2024-04-24T21:49:45.087Z,6.40
2024-04-24T21:52:16.510Z,6.35
2024-04-24T21:54:47.014Z,6.32
2024-04-24T21:57:17.417Z,6.33
2024-04-24T21:59:46.393Z,6.36
2024-04-24T22:02:15.296Z,6.37
2024-04-24T22:04:45.816Z,6.39
2024-04-24T22:07:16.502Z,6.40
2024-04-24T22:09:47.286Z,6.40
2024-04-24T22:12:17.858Z,6.40
2024-04-24T22:14:48.392Z,6.40
2024-04-24T22:17:25.159Z,6.35
2024-04-24T22:19:58.767Z,6.32
2024-04-24T22:22:29.377Z,6.26
2024-04-24T22:24:59.853Z,6.21
2024-04-24T22:27:28.845Z,6.16
2024-04-24T22:29:59.357Z,6.14
2024-04-24T22:32:30.018Z,6.17
2024-04-24T22:35:00.592Z,6.24
2024-04-24T22:37:34.429Z,6.27
2024-04-24T22:40:06.923Z,6.32
2024-04-24T22:42:37.508Z,6.38
2024-04-24T22:45:09.030Z,6.44
2024-04-24T22:47:39.809Z,6.47
2024-04-24T22:50:11.160Z,6.49
2024-04-24T22:52:41.739Z,6.47
2024-04-24T22:55:12.196Z,6.41
2024-04-24T22:57:41.180Z,6.31
2024-04-24T23:00:18.836Z,6.23
2024-04-24T23:02:49.619Z,6.17
2024-04-24T23:05:20.464Z,6.14
2024-04-24T23:07:51.016Z,6.13
2024-04-24T23:10:19.922Z,6.12
2024-04-24T23:12:50.479Z,6.11
2024-04-24T23:15:20.916Z,6.13
2024-04-24T23:17:49.876Z,6.17
2024-04-24T23:20:20.546Z,6.22
2024-04-24T23:22:51.065Z,6.26
2024-04-24T23:25:20.133Z,6.28
2024-04-24T23:27:50.380Z,6.27
2024-04-24T23:30:22.641Z,6.22
2024-04-24T23:32:53.164Z,6.13
2024-04-24T23:35:23.759Z,6.09
2024-04-24T23:37:54.462Z,6.04
2024-04-24T23:40:25.138Z,5.99
2024-04-24T23:42:55.592Z,5.92
2024-04-24T23:45:24.717Z,5.88
2024-04-24T23:47:53.881Z,5.85
2024-04-24T23:50:25.759Z,5.84
2024-04-24T23:52:56.390Z,5.86
2024-04-24T23:55:27.089Z,5.91
2024-04-24T23:57:57.591Z,5.93
